Terminal Aerodrome Forecast
Issued by NWS Atlanta, GA

Home | Current Version | Previous Version | Text Only | Print | Product List | Glossary On
Versions: 1 2 3 4 5 6 7 8 9 10 11 12 13 14 15 16 17 18 19 20 21 22 23 24 25 26 27 28 29 30 31 32 33 34 35
000
FTAK31 PAJN 120541
TAFAHN
TAF
PAHN 120541Z 1206/1306 30008KT 5SM -RA BR SCT020 OVC035
      TEMPO 1206/1210 VRB05KT 3SM -RA BR BKN004 OVC008
     FM121000 VRB04KT 5SM -RA BR BKN015 OVC020
     FM121600 09012KT 6SM -RA BR BKN025 OVC040
     FM122100 12012KT P6SM VCSH SCT025 OVC050
      AMD LTD TO CLD VIS AND WIND=

USA.gov is the U.S. government's official web portal to all federal, state and local government web resources and services.